Time;durP1;ratioP1;P1;durP2;ratioP2;P2;SDS_P1;SDS_P2;PMS_P1;PMS_P2;Temp;Humidity;BMP_temperature;BMP_pressure;BME280_temperature;BME280_humidity;BME280_pressure;Samples;Min_cycle;Max_cycle;Signal;HPM_P1;HPM_P2
2024/04/01 00:01:06;;;;;;;;;;;;;;;;;;6307005;28;20062;-61
2024/04/01 00:04:07;;;;;;;;;;;;;;;;;;6305298;28;19983;-61
2024/04/01 00:07:10;;;;;;;;;;;;;;;;;;6290274;28;20157;-61
2024/04/01 00:10:11;;;;;;;;;;;;;;;;;;6305951;28;19986;-61
2024/04/01 00:13:14;;;;;;;;;;;;;;;;;;6306321;28;20240;-61
2024/04/01 00:16:17;;;;;;;;;;;;;;;;;;6304117;28;20027;-60
2024/04/01 00:19:19;;;;;;;;;;;;;;;;;;6306210;28;19987;-61
2024/04/01 00:22:21;;;;;;;;;;;;;;;;;;6306390;28;19987;-61
2024/04/01 00:25:23;;;;;;;;;;;;;;;;;;6305095;28;19991;-60
2024/04/01 00:28:26;;;;;;;;;;;;;;;;;;6305750;28;20161;-61
2024/04/01 00:31:29;;;;;;;;;;;;;;;;;;6306454;28;19971;-61
2024/04/01 00:34:32;;;;;;;;;;;;;;;;;;6304470;28;19979;-61
2024/04/01 00:37:33;;;;;;;;;;;;;;;;;;6306307;28;19987;-62
2024/04/01 00:40:35;;;;;;;;;;;;;;;;;;6305709;28;20261;-61
2024/04/01 00:43:37;;;;;;;;;;;;;;;;;;6304807;28;19987;-61
2024/04/01 00:46:41;;;;;;;;;;;;;;;;;;6302702;28;19980;-61
2024/04/01 00:49:44;;;;;;;;;;;;;;;;;;6303867;28;19990;-63
2024/04/01 00:52:46;;;;;;;;;;;;;;;;;;6305535;28;19990;-61
2024/04/01 00:55:49;;;;;;;;;;;;;;;;;;6305532;28;19983;-61
2024/04/01 00:58:50;;;;;;;;;;;;;;;;;;6305456;28;19979;-61
2024/04/01 01:01:54;;;;;;;;;;;;;;;;;;6304218;28;19979;-61
2024/04/01 01:04:56;;;;;;;;;;;;;;;;;;6305520;28;19982;-61
2024/04/01 01:07:58;;;;;;;;;;;;;;;;;;6303990;28;20295;-61
2024/04/01 01:11:01;;;;;;;;;;;;;;;;;;6305747;28;20094;-61
2024/04/01 01:14:03;;;;;;;;;;;;;;;;;;6304865;28;19916;-61
2024/04/01 01:17:07;;;;;;;;;;;;;;;;;;6309891;28;20256;-61
2024/04/01 01:20:11;;;;;;;;;;;;;;;;;;6309958;28;19987;-61
2024/04/01 01:23:15;;;;;;;;;;;;;;;;;;6310263;28;19939;-61
2024/04/01 01:26:18;;;;;;;;;;;;;;;;;;6309299;28;19979;-62
2024/04/01 01:29:21;;;;;;;;;;;;;;;;;;6309642;28;19992;-61
2024/04/01 01:32:24;;;;;;;;;;;;;;;;;;6302324;28;19986;-61
2024/04/01 01:35:26;;;;;;;;;;;;;;;;;;6310265;28;19979;-62
2024/04/01 01:38:30;;;;;;;;;;;;;;;;;;6309720;28;19988;-61
2024/04/01 01:41:31;;;;;;;;;;;;;;;;;;6311090;28;19983;-60
2024/04/01 01:44:34;;;;;;;;;;;;;;;;;;6308647;28;20003;-61
2024/04/01 01:47:35;;;;;;;;;;;;;;;;;;6309726;28;20122;-60
2024/04/01 01:50:38;;;;;;;;;;;;;;;;;;6309546;28;19979;-61
2024/04/01 01:53:41;;;;;;;;;;;;;;;;;;6309564;28;19983;-60
2024/04/01 01:56:43;;;;;;;;;;;;;;;;;;6304979;28;19988;-60
2024/04/01 01:59:45;;;;;;;;;;;;;;;;;;6309137;28;19987;-60
2024/04/01 02:02:47;;;;;;;;;;;;;;;;;;6308801;28;19983;-60
2024/04/01 02:05:49;;;;;;;;;;;;;;;;;;6308483;28;19983;-60
2024/04/01 02:08:54;;;;;;;;;;;;;;;;;;6308780;28;19984;-60
2024/04/01 02:11:56;;;;;;;;;;;;;;;;;;6309138;28;19984;-60
2024/04/01 02:14:57;;;;;;;;;;;;;;;;;;6308515;28;20248;-60
2024/04/01 02:18:00;;;;;;;;;;;;;;;;;;6308843;28;20210;-61
2024/04/01 02:21:02;;;;;;;;;;;;;;;;;;6309705;28;19987;-61
2024/04/01 02:24:06;;;;;;;;;;;;;;;;;;6308900;28;20236;-61
2024/04/01 02:27:09;;;;;;;;;;;;;;;;;;6339969;28;19987;-62
2024/04/01 02:30:11;;;;;;;;;;;;;;;;;;6308727;28;19988;-61
2024/04/01 02:33:13;;;;;;;;;;;;;;;;;;6309435;28;20159;-61
2024/04/01 02:36:16;;;;;;;;;;;;;;;;;;6309163;28;19984;-60
2024/04/01 02:39:19;;;;;;;;;;;;;;;;;;6308251;28;19983;-60
2024/04/01 02:42:21;;;;;;;;;;;;;;;;;;6309073;28;19983;-60
2024/04/01 02:45:22;;;;;;;;;;;;;;;;;;6303287;28;20119;-60
2024/04/01 02:48:25;;;;;;;;;;;;;;;;;;6308530;28;19972;-60
2024/04/01 02:51:26;;;;;;;;;;;;;;;;;;6309118;28;19980;-60
2024/04/01 02:54:30;;;;;;;;;;;;;;;;;;6308076;28;19995;-60
2024/04/01 02:57:31;;;;;;;;;;;;;;;;;;6308192;28;19983;-60
2024/04/01 03:00:34;;;;;;;;;;;;;;;;;;6303291;28;19992;-60
2024/04/01 03:03:36;;;;;;;;;;;;;;;;;;6294440;28;20034;-61
2024/04/01 03:06:38;;;;;;;;;;;;;;;;;;6308009;28;19987;-62
2024/04/01 03:09:41;;;;;;;;;;;;;;;;;;6308264;28;20154;-62
2024/04/01 03:12:45;;;;;;;;;;;;;;;;;;6308288;28;19975;-61
2024/04/01 03:15:47;;;;;;;;;;;;;;;;;;6307539;28;19987;-64
2024/04/01 03:18:49;;;;;;;;;;;;;;;;;;6291272;28;19980;-62
2024/04/01 03:21:51;;;;;;;;;;;;;;;;;;6308369;28;20018;-61
2024/04/01 03:24:55;;;;;;;;;;;;;;;;;;6306914;28;20059;-61
2024/04/01 03:27:57;;;;;;;;;;;;;;;;;;6307768;28;20204;-60
2024/04/01 03:31:04;;;;;;;;;;;;;;;;;;6307521;28;19987;-62
2024/04/01 03:34:06;;;;;;;;;;;;;;;;;;6307499;28;20013;-60
2024/04/01 03:37:08;;;;;;;;;;;;;;;;;;6307927;28;19972;-61
2024/04/01 03:40:12;;;;;;;;;;;;;;;;;;6307232;28;19991;-61
2024/04/01 03:43:15;;;;;;;;;;;;;;;;;;6307047;28;20043;-62
2024/04/01 03:46:19;;;;;;;;;;;;;;;;;;6306794;28;20031;-61
2024/04/01 03:49:20;;;;;;;;;;;;;;;;;;6306835;28;20248;-62
2024/04/01 03:52:23;;;;;;;;;;;;;;;;;;6285898;28;20086;-61
2024/04/01 03:55:27;;;;;;;;;;;;;;;;;;6296593;28;20265;-60
2024/04/01 03:58:28;;;;;;;;;;;;;;;;;;6279797;28;19976;-60
2024/04/01 04:01:31;;;;;;;;;;;;;;;;;;6280156;28;19979;-61
2024/04/01 04:04:33;;;;;;;;;;;;;;;;;;6281316;28;19995;-60
2024/04/01 04:07:35;;;;;;;;;;;;;;;;;;6278668;28;19980;-61
2024/04/01 04:10:38;;;;;;;;;;;;;;;;;;6266878;28;19980;-61
2024/04/01 04:13:41;;;;;;;;;;;;;;;;;;6306239;28;20229;-61
2024/04/01 04:16:44;;;;;;;;;;;;;;;;;;6306524;28;19979;-61
2024/04/01 04:19:45;;;;;;;;;;;;;;;;;;6303380;28;19979;-61
2024/04/01 04:22:48;;;;;;;;;;;;;;;;;;6306554;28;20225;-61
2024/04/01 04:25:51;;;;;;;;;;;;;;;;;;6305928;28;19923;-61
2024/04/01 04:28:53;;;;;;;;;;;;;;;;;;6306243;28;19979;-61
2024/04/01 04:31:55;;;;;;;;;;;;;;;;;;6306834;28;19975;-61
2024/04/01 04:34:57;;;;;;;;;;;;;;;;;;6306132;28;20159;-61
2024/04/01 04:37:59;;;;;;;;;;;;;;;;;;6306604;28;20000;-61
2024/04/01 04:41:04;;;;;;;;;;;;;;;;;;6305562;28;19987;-61
2024/04/01 04:44:05;;;;;;;;;;;;;;;;;;6305768;28;19979;-61
2024/04/01 04:47:08;;;;;;;;;;;;;;;;;;6306446;28;19975;-61
2024/04/01 04:50:11;;;;;;;;;;;;;;;;;;6288800;28;19979;-62
2024/04/01 04:53:13;;;;;;;;;;;;;;;;;;6305181;28;20129;-61
2024/04/01 04:56:16;;;;;;;;;;;;;;;;;;6305655;28;20000;-61
2024/04/01 04:59:18;;;;;;;;;;;;;;;;;;6296752;28;19983;-61
2024/04/01 05:02:21;;;;;;;;;;;;;;;;;;6281970;28;20024;-61
2024/04/01 05:05:23;;;;;;;;;;;;;;;;;;6305957;28;19979;-61
2024/04/01 05:08:25;;;;;;;;;;;;;;;;;;6305810;28;19983;-61
2024/04/01 05:11:29;;;;;;;;;;;;;;;;;;6306190;28;19979;-61
2024/04/01 05:14:31;;;;;;;;;;;;;;;;;;6305511;28;19975;-63
2024/04/01 05:17:32;;;;;;;;;;;;;;;;;;6304328;28;20121;-61
2024/04/01 05:20:35;;;;;;;;;;;;;;;;;;6305303;28;19975;-61
2024/04/01 05:23:36;;;;;;;;;;;;;;;;;;6305214;28;20248;-61
2024/04/01 05:26:40;;;;;;;;;;;;;;;;;;6305811;28;19976;-61
2024/04/01 05:29:42;;;;;;;;;;;;;;;;;;6305591;28;19983;-61
2024/04/01 05:32:44;;;;;;;;;;;;;;;;;;6305852;28;19991;-61
2024/04/01 05:35:46;;;;;;;;;;;;;;;;;;6305679;28;19983;-61
2024/04/01 05:38:48;;;;;;;;;;;;;;;;;;6305100;28;20256;-61
2024/04/01 05:41:51;;;;;;;;;;;;;;;;;;6305416;28;19979;-62
2024/04/01 05:44:53;;;;;;;;;;;;;;;;;;6304726;28;19983;-61
2024/04/01 05:47:55;;;;;;;;;;;;;;;;;;6305871;28;20142;-61
2024/04/01 05:50:57;;;;;;;;;;;;;;;;;;6304972;28;20268;-61
2024/04/01 05:53:59;;;;;;;;;;;;;;;;;;6287513;28;19983;-61
2024/04/01 05:57:03;;;;;;;;;;;;;;;;;;6305368;28;19982;-61
2024/04/01 06:00:05;;;;;;;;;;;;;;;;;;6305354;28;20216;-61
2024/04/01 06:03:14;;;;;;;;;;;;;;;;;;6307669;28;19992;-62
2024/04/01 06:06:15;;;;;;;;;;;;;;;;;;6309397;28;19990;-61
2024/04/01 06:09:18;;;;;;;;;;;;;;;;;;6309031;28;19987;-60
2024/04/01 06:12:22;;;;;;;;;;;;;;;;;;6309915;28;20271;-60
2024/04/01 06:15:24;;;;;;;;;;;;;;;;;;6309088;28;19983;-60
2024/04/01 06:18:27;;;;;;;;;;;;;;;;;;6308712;28;19988;-60
2024/04/01 06:21:29;;;;;;;;;;;;;;;;;;6309633;28;19983;-61
2024/04/01 06:24:31;;;;;;;;;;;;;;;;;;6308925;28;20280;-59
2024/04/01 06:27:35;;;;;;;;;;;;;;;;;;6309452;28;20184;-60
2024/04/01 06:30:37;;;;;;;;;;;;;;;;;;6308884;28;19991;-60
2024/04/01 06:33:39;;;;;;;;;;;;;;;;;;6308286;28;20128;-60
2024/04/01 06:36:41;;;;;;;;;;;;;;;;;;6309122;28;19979;-60
2024/04/01 06:39:44;;;;;;;;;;;;;;;;;;6291831;28;20061;-60
2024/04/01 06:42:47;;;;;;;;;;;;;;;;;;6308504;28;19984;-62
2024/04/01 06:45:53;;;;;;;;;;;;;;;;;;6308547;28;19979;-61
2024/04/01 06:48:55;;;;;;;;;;;;;;;;;;6308863;28;19996;-61
2024/04/01 06:51:56;;;;;;;;;;;;;;;;;;6309272;28;19983;-61
2024/04/01 06:54:59;;;;;;;;;;;;;;;;;;6308366;28;20150;-61
2024/04/01 06:58:03;;;;;;;;;;;;;;;;;;6308251;28;19983;-61
2024/04/01 07:01:06;;;;;;;;;;;;;;;;;;6308057;28;19983;-60
2024/04/01 07:04:11;;;;;;;;;;;;;;;;;;6307808;28;19979;-60
2024/04/01 07:07:12;;;;;;;;;;;;;;;;;;6308617;27;19987;-60
2024/04/01 07:10:14;;;;;;;;;;;;;;;;;;6307942;28;19979;-62
2024/04/01 07:13:17;;;;;;;;;;;;;;;;;;6307619;28;19980;-61
2024/04/01 07:16:20;;;;;;;;;;;;;;;;;;6308573;28;19979;-61
2024/04/01 07:19:22;;;;;;;;;;;;;;;;;;6306210;28;19999;-61
2024/04/01 07:22:25;;;;;;;;;;;;;;;;;;6308116;28;19984;-61
2024/04/01 07:25:27;;;;;;;;;;;;;;;;;;6307501;28;19987;-61
2024/04/01 07:28:30;;;;;;;;;;;;;;;;;;6291612;28;19983;-61
2024/04/01 07:31:33;;;;;;;;;;;;;;;;;;6308293;28;20051;-61
2024/04/01 07:34:34;;;;;;;;;;;;;;;;;;6291399;28;19979;-61
2024/04/01 07:37:37;;;;;;;;;;;;;;;;;;6291975;28;19983;-61
2024/04/01 07:40:38;;;;;;;;;;;;;;;;;;6307388;28;19990;-61
2024/04/01 07:43:42;;;;;;;;;;;;;;;;;;6307267;28;19991;-61
2024/04/01 07:46:43;;;;;;;;;;;;;;;;;;6307166;28;20051;-60
2024/04/01 07:49:46;;;;;;;;;;;;;;;;;;6307420;28;20003;-60
2024/04/01 07:52:47;;;;;;;;;;;;;;;;;;6307606;28;19995;-60
2024/04/01 07:55:50;;;;;;;;;;;;;;;;;;6302102;28;20133;-60
2024/04/01 07:58:53;;;;;;;;;;;;;;;;;;6307274;28;20015;-60
2024/04/01 08:01:55;;;;;;;;;;;;;;;;;;6307695;28;20288;-60
2024/04/01 08:04:58;;;;;;;;;;;;;;;;;;6306537;28;19995;-60
2024/04/01 08:08:00;;;;;;;;;;;;;;;;;;6307226;28;20145;-60
2024/04/01 08:11:03;;;;;;;;;;;;;;;;;;6305698;28;19983;-61
2024/04/01 08:14:07;;;;;;;;;;;;;;;;;;6306862;28;19983;-61
2024/04/01 08:17:08;;;;;;;;;;;;;;;;;;6307120;28;20106;-61
2024/04/01 08:20:11;;;;;;;;;;;;;;;;;;6306218;28;19983;-60
2024/04/01 08:23:13;;;;;;;;;;;;;;;;;;6307128;28;20107;-60
2024/04/01 08:26:15;;;;;;;;;;;;;;;;;;6305129;28;19976;-60
2024/04/01 08:29:19;;;;;;;;;;;;;;;;;;6297705;28;19979;-62
2024/04/01 08:32:20;;;;;;;;;;;;;;;;;;6282659;28;20007;-62
2024/04/01 08:35:23;;;;;;;;;;;;;;;;;;6306242;28;19975;-60
2024/04/01 08:38:24;;;;;;;;;;;;;;;;;;6305926;28;20248;-61
2024/04/01 08:41:28;;;;;;;;;;;;;;;;;;6306442;28;20155;-61
2024/04/01 08:44:32;;;;;;;;;;;;;;;;;;6305734;28;19980;-62
2024/04/01 08:47:35;;;;;;;;;;;;;;;;;;6306190;28;19979;-61
2024/04/01 08:50:38;;;;;;;;;;;;;;;;;;6305678;28;19987;-61
2024/04/01 08:53:44;;;;;;;;;;;;;;;;;;6305403;28;19987;-60
2024/04/01 08:56:46;;;;;;;;;;;;;;;;;;6306288;28;19975;-61
2024/04/01 08:59:50;;;;;;;;;;;;;;;;;;6306104;28;19984;-61
2024/04/01 09:02:53;;;;;;;;;;;;;;;;;;6306146;28;19975;-61
2024/04/01 09:05:56;;;;;;;;;;;;;;;;;;6305975;28;20194;-60
2024/04/01 09:08:59;;;;;;;;;;;;;;;;;;6305930;28;19987;-61
2024/04/01 09:12:01;;;;;;;;;;;;;;;;;;6288697;28;20052;-61
2024/04/01 09:15:11;;;;;;;;;;;;;;;;;;6304236;28;20201;-60
2024/04/01 09:18:13;;;;;;;;;;;;;;;;;;6302539;28;20105;-60
2024/04/01 09:21:17;;;;;;;;;;;;;;;;;;6305711;28;20003;-61
2024/04/01 09:24:18;;;;;;;;;;;;;;;;;;6305532;28;19987;-61
2024/04/01 09:27:25;;;;;;;;;;;;;;;;;;6305659;28;19984;-60
2024/04/01 09:30:28;;;;;;;;;;;;;;;;;;6305119;28;19988;-63
2024/04/01 09:33:31;;;;;;;;;;;;;;;;;;6305120;28;19975;-60
2024/04/01 09:36:33;;;;;;;;;;;;;;;;;;6307467;28;19975;-62
2024/04/01 09:39:34;;;;;;;;;;;;;;;;;;6310473;28;19983;-61
2024/04/01 09:42:37;;;;;;;;;;;;;;;;;;6310238;28;20183;-60
2024/04/01 09:45:40;;;;;;;;;;;;;;;;;;6309922;28;19983;-60
2024/04/01 09:48:42;;;;;;;;;;;;;;;;;;6310144;28;19979;-60
2024/04/01 09:51:44;;;;;;;;;;;;;;;;;;6310607;28;19975;-61
2024/04/01 09:54:46;;;;;;;;;;;;;;;;;;6309598;28;19983;-61
2024/04/01 09:57:53;;;;;;;;;;;;;;;;;;6310067;28;19975;-61
2024/04/01 10:01:01;;;;;;;;;;;;;;;;;;6310117;28;20146;-61
2024/04/01 10:04:16;;;;;;;;;;;;;;;;;;6309883;28;20055;-61
2024/04/01 10:07:28;;;;;;;;;;;;;;;;;;6310146;28;19991;-61
2024/04/01 10:10:54;;;;;;;;;;;;;;;;;;6309417;28;19995;-61
2024/04/01 10:14:11;;;;;;;;;;;;;;;;;;6284879;28;19983;-61
2024/04/01 10:17:25;;;;;;;;;;;;;;;;;;6309997;28;20065;-61
2024/04/01 10:20:41;;;;;;;;;;;;;;;;;;6308820;28;20240;-61
2024/04/01 10:24:00;;;;;;;;;;;;;;;;;;6296419;28;20209;-61
2024/04/01 10:27:08;;;;;;;;;;;;;;;;;;6308656;28;19983;-62
2024/04/01 10:30:33;;;;;;;;;;;;;;;;;;6309217;28;19991;-61
2024/04/01 10:33:50;;;;;;;;;;;;;;;;;;6309066;28;19979;-61
2024/04/01 10:37:02;;;;;;;;;;;;;;;;;;6309454;28;19979;-61
2024/04/01 10:40:04;;;;;;;;;;;;;;;;;;6308909;28;19979;-61
2024/04/01 10:43:14;;;;;;;;;;;;;;;;;;6309495;28;19979;-61
2024/04/01 10:46:40;;;;;;;;;;;;;;;;;;6291413;28;20244;-61
2024/04/01 10:50:02;;;;;;;;;;;;;;;;;;6307592;28;19983;-62
2024/04/01 10:53:23;;;;;;;;;;;;;;;;;;6309346;28;20149;-61
2024/04/01 10:56:40;;;;;;;;;;;;;;;;;;6307260;28;19995;-60
2024/04/01 11:00:05;;;;;;;;;;;;;;;;;;6295560;28;19987;-61
2024/04/01 11:03:22;;;;;;;;;;;;;;;;;;6308509;28;19980;-61
2024/04/01 11:06:42;;;;;;;;;;;;;;;;;;6298676;28;19971;-62
2024/04/01 11:09:49;;;;;;;;;;;;;;;;;;6294720;28;20157;-61
2024/04/01 11:12:53;;;;;;;;;;;;;;;;;;6308204;28;20157;-61
2024/04/01 11:15:56;;;;;;;;;;;;;;;;;;6307947;28;19984;-60
2024/04/01 11:19:03;;;;;;;;;;;;;;;;;;6307652;28;20147;-59
2024/04/01 11:22:06;;;;;;;;;;;;;;;;;;6308177;28;19975;-60
2024/04/01 11:25:11;;;;;;;;;;;;;;;;;;6290899;28;19983;-62
2024/04/01 11:28:24;;;;;;;;;;;;;;;;;;6308750;28;19979;-60
2024/04/01 11:31:26;;;;;;;;;;;;;;;;;;6290096;28;19984;-61
2024/04/01 11:34:32;;;;;;;;;;;;;;;;;;6301205;28;20083;-60
2024/04/01 11:37:35;;;;;;;;;;;;;;;;;;6307600;28;19980;-61
2024/04/01 11:40:39;;;;;;;;;;;;;;;;;;6290986;28;20032;-60
2024/04/01 11:43:40;;;;;;;;;;;;;;;;;;6307306;28;20133;-61
2024/04/01 11:46:43;;;;;;;;;;;;;;;;;;6307392;28;19991;-60
2024/04/01 11:49:45;;;;;;;;;;;;;;;;;;6307178;28;19995;-61
2024/04/01 11:52:57;;;;;;;;;;;;;;;;;;6307768;28;19980;-61
2024/04/01 11:56:00;;;;;;;;;;;;;;;;;;6306918;28;19984;-60
2024/04/01 11:59:03;;;;;;;;;;;;;;;;;;6306784;28;19983;-60
2024/04/01 12:02:11;;;;;;;;;;;;;;;;;;6307094;28;19975;-62
2024/04/01 12:05:14;;;;;;;;;;;;;;;;;;6306994;28;19988;-60
2024/04/01 12:08:15;;;;;;;;;;;;;;;;;;6306845;28;19999;-61
2024/04/01 12:11:20;;;;;;;;;;;;;;;;;;6305817;28;19983;-62
2024/04/01 12:14:22;;;;;;;;;;;;;;;;;;6306390;28;19975;-63
2024/04/01 12:17:24;;;;;;;;;;;;;;;;;;6304750;28;19984;-61
2024/04/01 12:20:31;;;;;;;;;;;;;;;;;;6306351;28;19983;-61
2024/04/01 12:23:34;;;;;;;;;;;;;;;;;;6306186;28;19999;-61
2024/04/01 12:26:37;;;;;;;;;;;;;;;;;;6306529;28;20046;-60
2024/04/01 12:29:40;;;;;;;;;;;;;;;;;;6307108;28;19987;-61
2024/04/01 12:32:42;;;;;;;;;;;;;;;;;;6307313;28;19979;-60
2024/04/01 12:35:44;;;;;;;;;;;;;;;;;;6306626;28;19983;-61
2024/04/01 12:38:46;;;;;;;;;;;;;;;;;;6305610;28;19983;-61
2024/04/01 12:41:51;;;;;;;;;;;;;;;;;;6306482;28;19983;-60
2024/04/01 12:44:53;;;;;;;;;;;;;;;;;;6305940;28;19984;-63
2024/04/01 12:47:55;;;;;;;;;;;;;;;;;;6306747;28;20026;-61
2024/04/01 12:50:58;;;;;;;;;;;;;;;;;;6306195;28;19987;-60
2024/04/01 12:54:18;;;;;;;;;;;;;;;;;;6306114;28;20258;-62
2024/04/01 12:57:28;;;;;;;;;;;;;;;;;;6306081;28;19979;-61
2024/04/01 13:00:30;;;;;;;;;;;;;;;;;;6306007;28;19991;-60
2024/04/01 13:03:47;;;;;;;;;;;;;;;;;;6306116;28;20278;-60
2024/04/01 13:06:52;;;;;;;;;;;;;;;;;;6306280;28;20264;-61
2024/04/01 13:09:57;;;;;;;;;;;;;;;;;;6305668;28;20003;-62
2024/04/01 13:13:07;;;;;;;;;;;;;;;;;;6306269;28;19983;-62
2024/04/01 13:16:12;;;;;;;;;;;;;;;;;;6289384;28;19995;-61
2024/04/01 13:19:14;;;;;;;;;;;;;;;;;;6306102;28;19991;-62
2024/04/01 13:22:20;;;;;;;;;;;;;;;;;;6306415;28;20047;-62
2024/04/01 13:25:26;;;;;;;;;;;;;;;;;;6306237;28;20015;-62
2024/04/01 13:28:33;;;;;;;;;;;;;;;;;;6306102;28;19975;-63
2024/04/01 13:31:36;;;;;;;;;;;;;;;;;;6306564;28;19976;-60
2024/04/01 13:34:40;;;;;;;;;;;;;;;;;;6305631;28;19983;-60
2024/04/01 13:37:44;;;;;;;;;;;;;;;;;;6306004;28;19971;-62
2024/04/01 13:40:48;;;;;;;;;;;;;;;;;;6305422;28;19980;-62
2024/04/01 13:43:55;;;;;;;;;;;;;;;;;;6305636;28;19983;-62
2024/04/01 13:47:03;;;;;;;;;;;;;;;;;;6305299;28;19980;-62
2024/04/01 13:50:16;;;;;;;;;;;;;;;;;;6305260;28;20159;-61
2024/04/01 13:53:23;;;;;;;;;;;;;;;;;;6304035;28;19976;-61
2024/04/01 13:56:28;;;;;;;;;;;;;;;;;;6281479;28;19984;-60
2024/04/01 13:59:35;;;;;;;;;;;;;;;;;;6304986;28;19975;-60
2024/04/01 14:02:40;;;;;;;;;;;;;;;;;;6305856;28;19984;-62
2024/04/01 14:06:00;;;;;;;;;;;;;;;;;;6305077;28;19987;-61
2024/04/01 14:09:03;;;;;;;;;;;;;;;;;;6304288;28;19984;-61
2024/04/01 14:12:07;;;;;;;;;;;;;;;;;;6305387;28;19983;-61
2024/04/01 14:15:11;;;;;;;;;;;;;;;;;;6304929;28;19983;-61
2024/04/01 14:18:16;;;;;;;;;;;;;;;;;;6305544;28;19971;-62
2024/04/01 14:21:19;;;;;;;;;;;;;;;;;;6305660;28;19983;-61
2024/04/01 14:24:20;;;;;;;;;;;;;;;;;;6301129;28;19987;-61
2024/04/01 14:27:22;;;;;;;;;;;;;;;;;;6309563;28;19983;-62
2024/04/01 14:30:25;;;;;;;;;;;;;;;;;;6309144;28;19988;-60
2024/04/01 14:33:29;;;;;;;;;;;;;;;;;;6309337;28;19979;-61
2024/04/01 14:36:30;;;;;;;;;;;;;;;;;;6309772;28;20109;-61
2024/04/01 14:39:33;;;;;;;;;;;;;;;;;;6309576;28;19991;-61
2024/04/01 14:42:35;;;;;;;;;;;;;;;;;;6309776;28;19980;-61
2024/04/01 14:45:38;;;;;;;;;;;;;;;;;;6308682;28;20256;-60
2024/04/01 14:48:41;;;;;;;;;;;;;;;;;;6309071;28;20197;-60
2024/04/01 14:51:43;;;;;;;;;;;;;;;;;;6309238;28;19976;-61
2024/04/01 14:54:45;;;;;;;;;;;;;;;;;;6308875;28;19979;-61
2024/04/01 14:57:46;;;;;;;;;;;;;;;;;;6309302;28;20086;-61
2024/04/01 15:00:50;;;;;;;;;;;;;;;;;;6308335;28;20112;-61
2024/04/01 15:03:53;;;;;;;;;;;;;;;;;;6308347;28;20070;-61
2024/04/01 15:06:55;;;;;;;;;;;;;;;;;;6308551;28;20106;-60
2024/04/01 15:09:58;;;;;;;;;;;;;;;;;;6308411;28;19975;-62
2024/04/01 15:13:04;;;;;;;;;;;;;;;;;;6308587;28;19972;-61
2024/04/01 15:16:11;;;;;;;;;;;;;;;;;;6308178;28;19983;-62
2024/04/01 15:19:14;;;;;;;;;;;;;;;;;;6308345;28;20111;-62
2024/04/01 15:22:17;;;;;;;;;;;;;;;;;;6307760;28;19983;-60
2024/04/01 15:25:19;;;;;;;;;;;;;;;;;;6304816;28;19979;-61
2024/04/01 15:28:21;;;;;;;;;;;;;;;;;;6307279;28;19983;-61
2024/04/01 15:31:24;;;;;;;;;;;;;;;;;;6308154;28;19975;-60
2024/04/01 15:34:26;;;;;;;;;;;;;;;;;;6307446;28;19979;-60
2024/04/01 15:37:28;;;;;;;;;;;;;;;;;;6308142;28;19991;-61
2024/04/01 15:40:31;;;;;;;;;;;;;;;;;;6307843;28;20003;-62
2024/04/01 15:43:32;;;;;;;;;;;;;;;;;;6307507;28;20119;-61
2024/04/01 15:46:36;;;;;;;;;;;;;;;;;;6307576;28;19996;-60
2024/04/01 15:49:39;;;;;;;;;;;;;;;;;;6289338;28;19984;-61
2024/04/01 15:52:41;;;;;;;;;;;;;;;;;;6308069;28;19979;-62
2024/04/01 15:55:43;;;;;;;;;;;;;;;;;;6262162;28;19987;-61
2024/04/01 15:58:45;;;;;;;;;;;;;;;;;;6306857;28;20148;-61
2024/04/01 16:01:48;;;;;;;;;;;;;;;;;;6281695;28;20253;-63
2024/04/01 16:04:50;;;;;;;;;;;;;;;;;;6260408;28;20015;-62
2024/04/01 16:07:52;;;;;;;;;;;;;;;;;;6273761;28;19983;-61
2024/04/01 16:10:55;;;;;;;;;;;;;;;;;;6267336;28;19987;-61
2024/04/01 16:13:58;;;;;;;;;;;;;;;;;;6281546;28;19984;-61
2024/04/01 16:17:01;;;;;;;;;;;;;;;;;;6289849;28;20040;-61
2024/04/01 16:20:04;;;;;;;;;;;;;;;;;;6306189;28;20232;-61
2024/04/01 16:23:07;;;;;;;;;;;;;;;;;;6339954;28;19979;-61
2024/04/01 16:26:09;;;;;;;;;;;;;;;;;;6335604;28;20060;-62
2024/04/01 16:29:13;;;;;;;;;;;;;;;;;;6339387;27;19975;-62
2024/04/01 16:32:16;;;;;;;;;;;;;;;;;;6357103;28;19978;-60
2024/04/01 16:35:18;;;;;;;;;;;;;;;;;;6321737;28;19994;-62
2024/04/01 16:38:20;;;;;;;;;;;;;;;;;;6339258;28;20240;-61
2024/04/01 16:41:23;;;;;;;;;;;;;;;;;;6339257;28;20224;-61
2024/04/01 16:44:24;;;;;;;;;;;;;;;;;;6338923;27;19978;-60
2024/04/01 16:47:28;;;;;;;;;;;;;;;;;;6355692;27;20152;-61
2024/04/01 16:50:29;;;;;;;;;;;;;;;;;;6339410;28;20208;-61
2024/04/01 16:53:36;;;;;;;;;;;;;;;;;;6339156;28;19979;-62
2024/04/01 16:56:37;;;;;;;;;;;;;;;;;;6338488;28;20085;-60
2024/04/01 16:59:40;;;;;;;;;;;;;;;;;;6339120;28;19983;-61
2024/04/01 17:02:43;;;;;;;;;;;;;;;;;;6339747;28;20135;-61
2024/04/01 17:05:45;;;;;;;;;;;;;;;;;;6339124;28;19983;-61
2024/04/01 17:08:47;;;;;;;;;;;;;;;;;;6338877;28;19979;-61
2024/04/01 17:11:49;;;;;;;;;;;;;;;;;;6339904;28;19974;-61
2024/04/01 17:14:51;;;;;;;;;;;;;;;;;;6338824;27;19987;-62
2024/04/01 17:17:55;;;;;;;;;;;;;;;;;;6339397;28;19979;-60
2024/04/01 17:20:59;;;;;;;;;;;;;;;;;;6339083;27;19978;-61
2024/04/01 17:24:02;;;;;;;;;;;;;;;;;;6339163;28;19994;-61
2024/04/01 17:27:03;;;;;;;;;;;;;;;;;;6339285;27;20349;-61
2024/04/01 17:30:07;;;;;;;;;;;;;;;;;;6355918;27;19975;-61
2024/04/01 17:33:11;;;;;;;;;;;;;;;;;;6338950;27;19983;-60
2024/04/01 17:36:13;;;;;;;;;;;;;;;;;;6338497;28;20051;-61
2024/04/01 17:39:15;;;;;;;;;;;;;;;;;;6338294;28;20168;-62
2024/04/01 17:42:21;;;;;;;;;;;;;;;;;;6338886;28;19978;-61
2024/04/01 17:45:23;;;;;;;;;;;;;;;;;;6338145;28;19975;-61
2024/04/01 17:48:30;;;;;;;;;;;;;;;;;;6338679;28;20021;-62
2024/04/01 17:51:31;;;;;;;;;;;;;;;;;;6339210;28;19978;-61
2024/04/01 17:54:34;;;;;;;;;;;;;;;;;;6338782;28;20201;-62
2024/04/01 17:57:36;;;;;;;;;;;;;;;;;;6341215;28;19974;-61
2024/04/01 18:00:38;;;;;;;;;;;;;;;;;;6343268;28;19991;-60
2024/04/01 18:03:42;;;;;;;;;;;;;;;;;;6343310;28;19978;-62
2024/04/01 18:06:43;;;;;;;;;;;;;;;;;;6344217;28;19996;-61
2024/04/01 18:09:46;;;;;;;;;;;;;;;;;;6344063;28;20183;-62
2024/04/01 18:12:48;;;;;;;;;;;;;;;;;;6320317;28;19987;-60
2024/04/01 18:15:50;;;;;;;;;;;;;;;;;;6301148;28;19998;-61
2024/04/01 18:18:54;;;;;;;;;;;;;;;;;;6318221;28;19979;-61
2024/04/01 18:21:56;;;;;;;;;;;;;;;;;;6318167;28;19994;-62
2024/04/01 18:24:58;;;;;;;;;;;;;;;;;;6317486;28;19987;-61
2024/04/01 18:28:00;;;;;;;;;;;;;;;;;;6289186;28;19983;-61
2024/04/01 18:31:03;;;;;;;;;;;;;;;;;;6292411;28;19987;-62
2024/04/01 18:34:06;;;;;;;;;;;;;;;;;;6292098;28;20074;-61
2024/04/01 18:37:08;;;;;;;;;;;;;;;;;;6293522;28;19983;-61
2024/04/01 18:40:11;;;;;;;;;;;;;;;;;;6293234;28;19992;-61
2024/04/01 18:43:17;;;;;;;;;;;;;;;;;;6293075;28;20833;-61
2024/04/01 18:46:20;;;;;;;;;;;;;;;;;;6307190;28;20059;-62
2024/04/01 18:49:24;;;;;;;;;;;;;;;;;;6333744;28;20252;-61
2024/04/01 18:52:27;;;;;;;;;;;;;;;;;;6334508;28;20003;-61
2024/04/01 18:55:30;;;;;;;;;;;;;;;;;;6333946;28;19987;-62
2024/04/01 18:58:31;;;;;;;;;;;;;;;;;;6334124;28;19975;-62
2024/04/01 19:01:34;;;;;;;;;;;;;;;;;;6334405;28;19980;-63
2024/04/01 19:04:39;;;;;;;;;;;;;;;;;;6316635;28;19978;-60
2024/04/01 19:07:43;;;;;;;;;;;;;;;;;;6334331;28;19978;-61
2024/04/01 19:10:44;;;;;;;;;;;;;;;;;;6338562;28;20057;-61
2024/04/01 19:13:47;;;;;;;;;;;;;;;;;;6358921;27;19979;-61
2024/04/01 19:16:48;;;;;;;;;;;;;;;;;;6358912;28;19982;-61
2024/04/01 19:19:52;;;;;;;;;;;;;;;;;;6358214;28;19978;-61
2024/04/01 19:22:54;;;;;;;;;;;;;;;;;;6358929;28;20035;-62
2024/04/01 19:25:57;;;;;;;;;;;;;;;;;;6358491;28;20174;-61
2024/04/01 19:28:58;;;;;;;;;;;;;;;;;;6358681;27;20002;-61
2024/04/01 19:32:00;;;;;;;;;;;;;;;;;;6358663;28;19982;-61
2024/04/01 19:35:04;;;;;;;;;;;;;;;;;;6357952;28;20149;-61
2024/04/01 19:38:06;;;;;;;;;;;;;;;;;;6358699;28;20151;-60
2024/04/01 19:41:08;;;;;;;;;;;;;;;;;;6357874;28;20137;-63
2024/04/01 19:44:11;;;;;;;;;;;;;;;;;;6355574;27;20271;-61
2024/04/01 19:47:13;;;;;;;;;;;;;;;;;;6357587;28;19979;-60
2024/04/01 19:50:17;;;;;;;;;;;;;;;;;;6357845;28;19978;-61
2024/04/01 19:53:18;;;;;;;;;;;;;;;;;;6357060;27;19975;-62
2024/04/01 19:56:23;;;;;;;;;;;;;;;;;;6357684;27;19983;-61
2024/04/01 19:59:25;;;;;;;;;;;;;;;;;;6339770;27;19972;-61
2024/04/01 20:02:28;;;;;;;;;;;;;;;;;;6357940;27;19990;-61
2024/04/01 20:05:31;;;;;;;;;;;;;;;;;;6357068;27;19978;-61
2024/04/01 20:08:34;;;;;;;;;;;;;;;;;;6356970;27;19982;-61
2024/04/01 20:11:36;;;;;;;;;;;;;;;;;;6357569;27;20166;-62
2024/04/01 20:14:37;;;;;;;;;;;;;;;;;;6357040;27;19991;-62
2024/04/01 20:17:40;;;;;;;;;;;;;;;;;;6357721;27;20212;-61
2024/04/01 20:20:43;;;;;;;;;;;;;;;;;;6356376;27;19990;-61
2024/04/01 20:23:46;;;;;;;;;;;;;;;;;;6356749;27;20011;-61
2024/04/01 20:26:49;;;;;;;;;;;;;;;;;;6357235;27;19975;-61
2024/04/01 20:29:50;;;;;;;;;;;;;;;;;;6356172;27;19994;-62
2024/04/01 20:32:53;;;;;;;;;;;;;;;;;;6357455;27;19999;-61
2024/04/01 20:35:57;;;;;;;;;;;;;;;;;;6356377;27;19999;-61
2024/04/01 20:38:58;;;;;;;;;;;;;;;;;;6355964;27;20066;-62
2024/04/01 20:42:00;;;;;;;;;;;;;;;;;;6355724;27;19982;-62
2024/04/01 20:45:03;;;;;;;;;;;;;;;;;;6390835;27;19982;-60
2024/04/01 20:48:06;;;;;;;;;;;;;;;;;;6340136;27;19978;-62
2024/04/01 20:51:11;;;;;;;;;;;;;;;;;;6390683;27;19951;-62
2024/04/01 20:54:15;;;;;;;;;;;;;;;;;;6354444;27;19986;-60